createdAt,value
2023-01-28T00:05:01.694Z,99.90
2023-01-28T00:10:05.129Z,99.90
2023-01-28T00:15:08.949Z,99.90
2023-01-28T00:20:12.589Z,99.90
2023-01-28T00:25:16.933Z,99.90
2023-01-28T00:30:20.823Z,99.90
2023-01-28T00:35:23.566Z,99.90
2023-01-28T00:40:26.589Z,99.90
2023-01-28T00:45:29.898Z,99.90
2023-01-28T00:50:32.856Z,99.90
2023-01-28T00:55:35.963Z,99.90
2023-01-28T01:00:38.951Z,99.90
2023-01-28T01:05:41.826Z,99.90
2023-01-28T01:10:45.023Z,99.90
2023-01-28T01:15:47.885Z,99.90
2023-01-28T01:20:52.235Z,99.90
2023-01-28T01:25:55.733Z,99.90
2023-01-28T01:31:20.238Z,99.90
2023-01-28T01:36:26.184Z,99.90
2023-01-28T01:41:32.187Z,99.90
2023-01-28T01:46:51.126Z,99.90
2023-01-28T01:52:14.526Z,99.90
2023-01-28T01:57:26.831Z,99.90
2023-01-28T02:02:30.709Z,99.90
2023-01-28T02:07:34.520Z,99.90
2023-01-28T02:12:46.221Z,99.90
2023-01-28T02:17:51.106Z,99.90
2023-01-28T02:23:21.568Z,99.90
2023-01-28T02:28:30.127Z,99.90
2023-01-28T02:33:58.880Z,99.90
2023-01-28T02:39:13.500Z,99.90
2023-01-28T02:44:16.478Z,99.90
2023-01-28T02:49:45.409Z,99.90
2023-01-28T02:55:08.593Z,99.90
2023-01-28T03:00:27.842Z,99.90
2023-01-28T03:05:41.166Z,99.90
2023-01-28T03:10:43.998Z,99.90
2023-01-28T03:16:07.289Z,99.90
2023-01-28T03:21:39.889Z,99.90
2023-01-28T03:27:09.602Z,99.90
2023-01-28T03:32:31.974Z,99.90
2023-01-28T03:37:35.215Z,99.90
2023-01-28T03:42:38.166Z,99.90
2023-01-28T03:47:41.386Z,99.90
2023-01-28T03:52:44.456Z,99.90
2023-01-28T03:57:47.496Z,99.90
2023-01-28T04:02:51.031Z,99.90
2023-01-28T04:07:57.408Z,99.90
2023-01-28T04:13:00.536Z,99.90
2023-01-28T04:18:04.209Z,99.90
2023-01-28T04:23:10.290Z,99.90
2023-01-28T04:28:13.235Z,99.90
2023-01-28T04:33:16.073Z,99.90
2023-01-28T04:38:19.042Z,99.90
2023-01-28T04:43:22.071Z,99.90
2023-01-28T04:48:25.211Z,99.90
2023-01-28T04:53:28.167Z,99.90
2023-01-28T04:58:31.200Z,99.90
2023-01-28T05:03:36.255Z,99.90
2023-01-28T05:08:39.401Z,99.90
2023-01-28T05:13:42.457Z,99.90
2023-01-28T05:18:48.163Z,99.90
2023-01-28T05:23:51.158Z,99.90
2023-01-28T05:28:54.186Z,99.90
2023-01-28T05:33:57.937Z,99.90
2023-01-28T05:39:00.932Z,99.90
2023-01-28T05:44:05.067Z,99.90
2023-01-28T05:49:12.359Z,99.90
2023-01-28T05:54:15.250Z,99.90
2023-01-28T05:59:18.673Z,99.90
2023-01-28T06:04:22.027Z,99.90
2023-01-28T06:09:24.995Z,99.90
2023-01-28T06:14:27.875Z,99.90
2023-01-28T06:19:30.763Z,99.90
2023-01-28T06:24:33.911Z,99.90
2023-01-28T06:29:36.947Z,99.90
2023-01-28T06:34:40.460Z,99.90
2023-01-28T06:39:43.229Z,99.90
2023-01-28T06:44:46.228Z,99.90
2023-01-28T06:49:49.164Z,99.90
2023-01-28T06:54:53.628Z,99.90
2023-01-28T06:59:56.581Z,99.90
2023-01-28T07:04:59.629Z,99.90
2023-01-28T07:10:02.769Z,99.90
2023-01-28T07:15:06.644Z,99.90
2023-01-28T07:20:15.970Z,99.90
2023-01-28T07:25:19.287Z,99.90
2023-01-28T07:30:24.219Z,99.90
2023-01-28T07:35:27.913Z,99.90
2023-01-28T07:40:31.035Z,99.90
2023-01-28T07:45:34.435Z,99.90
2023-01-28T07:50:38.526Z,99.90
2023-01-28T07:55:41.519Z,99.90
2023-01-28T08:00:44.710Z,99.90
2023-01-28T08:05:51.746Z,99.90
2023-01-28T08:10:54.806Z,99.90
2023-01-28T08:15:57.856Z,99.90
2023-01-28T08:21:02.321Z,99.90
2023-01-28T08:26:05.258Z,99.90
2023-01-28T08:31:08.592Z,99.90
2023-01-28T08:36:12.750Z,99.90
2023-01-28T08:41:15.754Z,99.90
2023-01-28T08:46:18.587Z,99.90
2023-01-28T08:51:21.355Z,99.90
2023-01-28T08:56:24.202Z,99.90
2023-01-28T09:01:29.483Z,99.90
2023-01-28T09:06:33.066Z,99.90
2023-01-28T09:11:36.041Z,99.90
2023-01-28T09:16:38.937Z,99.90
2023-01-28T09:21:42.103Z,99.90
2023-01-28T09:26:45.562Z,99.90
2023-01-28T09:31:48.623Z,99.90
2023-01-28T09:36:51.503Z,99.90
2023-01-28T09:42:37.132Z,99.90
2023-01-28T09:47:53.964Z,99.90
2023-01-28T09:53:20.909Z,99.90
2023-01-28T09:58:24.134Z,99.90
2023-01-28T10:03:58.325Z,99.90
2023-01-28T10:09:33.215Z,99.90
2023-01-28T10:14:50.897Z,99.90
2023-01-28T10:20:17.958Z,99.90
2023-01-28T10:25:25.889Z,99.90
2023-01-28T10:30:35.212Z,99.90
2023-01-28T10:35:42.701Z,99.90
2023-01-28T10:40:48.329Z,99.90
2023-01-28T10:46:32.602Z,99.90
2023-01-28T10:51:39.005Z,99.90
2023-01-28T10:56:44.047Z,99.90
2023-01-28T11:01:56.560Z,99.90
2023-01-28T11:07:02.340Z,99.90
2023-01-28T11:12:26.051Z,99.90
2023-01-28T11:17:40.220Z,99.90
2023-01-28T11:22:45.139Z,99.90
2023-01-28T11:27:51.537Z,99.90
2023-01-28T11:33:21.487Z,99.90
2023-01-28T11:38:26.161Z,99.90
2023-01-28T11:43:31.599Z,99.90
2023-01-28T11:48:49.705Z,99.80
2023-01-28T11:54:35.521Z,99.90
2023-01-28T11:59:53.437Z,99.90
2023-01-28T12:05:11.799Z,99.90
2023-01-28T12:10:49.736Z,99.90
2023-01-28T12:16:30.452Z,99.10
2023-01-28T12:22:08.528Z,98.60
2023-01-28T12:27:38.220Z,99.00
2023-01-28T12:33:26.147Z,99.10
2023-01-28T12:38:53.932Z,99.80
2023-01-28T12:44:09.636Z,99.40
2023-01-28T12:49:36.316Z,99.30
2023-01-28T12:55:05.375Z,98.80
2023-01-28T13:00:37.025Z,98.60
2023-01-28T13:05:48.487Z,99.10
2023-01-28T13:10:53.334Z,99.10
2023-01-28T13:15:56.439Z,99.60
2023-01-28T13:21:01.837Z,99.30
2023-01-28T13:26:20.062Z,99.50
2023-01-28T13:31:24.742Z,99.30
2023-01-28T13:36:39.202Z,98.90
2023-01-28T13:41:47.758Z,99.50
2023-01-28T13:46:51.010Z,99.60
2023-01-28T13:52:12.287Z,99.40
2023-01-28T13:57:39.249Z,99.70
2023-01-28T14:03:09.682Z,99.20
2023-01-28T14:08:24.456Z,99.80
2023-01-28T14:14:05.911Z,99.70
2023-01-28T14:19:14.472Z,99.90
2023-01-28T14:24:19.610Z,99.90
2023-01-28T14:29:57.637Z,99.70
2023-01-28T14:35:09.909Z,99.50
2023-01-28T14:40:17.023Z,99.90
2023-01-28T14:45:25.934Z,99.90
2023-01-28T14:50:53.794Z,99.90
2023-01-28T14:56:20.269Z,99.90
2023-01-28T15:01:29.914Z,99.90
2023-01-28T15:06:36.145Z,99.90
2023-01-28T15:11:43.507Z,99.90
2023-01-28T15:16:50.831Z,99.90
2023-01-28T15:21:58.080Z,99.90
2023-01-28T15:27:01.791Z,99.90
2023-01-28T15:32:07.270Z,99.90
2023-01-28T15:37:11.152Z,99.90
2023-01-28T15:42:29.410Z,99.90
2023-01-28T15:47:35.373Z,99.90
2023-01-28T15:52:42.305Z,99.90
2023-01-28T15:57:45.243Z,99.90
2023-01-28T16:02:51.488Z,99.90
2023-01-28T16:07:56.465Z,99.90
2023-01-28T16:13:07.376Z,99.90
2023-01-28T16:18:30.209Z,99.90
2023-01-28T16:23:33.626Z,99.90
2023-01-28T16:28:36.435Z,99.90
2023-01-28T16:33:39.417Z,99.90
2023-01-28T16:38:42.541Z,99.90
2023-01-28T16:43:45.538Z,99.90
2023-01-28T16:48:48.600Z,99.90
2023-01-28T16:53:51.945Z,99.90
2023-01-28T16:58:56.004Z,99.90
2023-01-28T17:03:59.079Z,99.90
2023-01-28T17:09:02.154Z,99.90
2023-01-28T17:14:05.103Z,99.90
2023-01-28T17:19:08.107Z,99.90
2023-01-28T17:24:10.968Z,99.90
2023-01-28T17:29:13.914Z,99.90
2023-01-28T17:34:16.768Z,99.90
2023-01-28T17:39:19.703Z,99.90
2023-01-28T17:44:22.766Z,99.90
2023-01-28T17:49:25.738Z,99.90
2023-01-28T17:54:28.858Z,99.90
2023-01-28T17:59:31.766Z,99.90
2023-01-28T18:04:39.793Z,99.90
2023-01-28T18:09:45.880Z,99.90
2023-01-28T18:14:48.996Z,99.90
2023-01-28T18:19:52.701Z,99.90
2023-01-28T18:24:55.731Z,99.90
2023-01-28T18:29:58.771Z,99.90
2023-01-28T18:35:06.711Z,99.90
2023-01-28T18:40:10.633Z,99.90
2023-01-28T18:45:13.940Z,99.90
2023-01-28T18:50:17.185Z,99.90
2023-01-28T18:55:21.560Z,99.90
2023-01-28T19:00:24.645Z,99.90
2023-01-28T19:05:33.898Z,99.90
2023-01-28T19:10:36.947Z,99.90
2023-01-28T19:15:40.259Z,99.90
2023-01-28T19:20:43.733Z,99.90
2023-01-28T19:25:46.680Z,99.90
2023-01-28T19:30:50.043Z,99.90
2023-01-28T19:36:01.076Z,99.90
2023-01-28T19:41:08.184Z,99.90
2023-01-28T19:46:16.240Z,99.90
2023-01-28T19:51:20.016Z,99.90
2023-01-28T19:56:25.389Z,99.90
2023-01-28T20:01:30.438Z,99.90
2023-01-28T20:06:35.605Z,99.90
2023-01-28T20:11:38.515Z,99.90
2023-01-28T20:16:42.089Z,99.90
2023-01-28T20:21:47.589Z,99.90
2023-01-28T20:26:50.547Z,99.90
2023-01-28T20:32:13.708Z,99.90
2023-01-28T20:37:20.060Z,99.90
2023-01-28T20:42:23.013Z,99.90
2023-01-28T20:47:25.996Z,99.90
2023-01-28T20:52:28.963Z,99.90
2023-01-28T20:57:32.207Z,99.90
2023-01-28T21:02:39.898Z,99.90
2023-01-28T21:07:43.083Z,99.90
2023-01-28T21:12:45.963Z,99.90
2023-01-28T21:17:48.839Z,99.90
2023-01-28T21:22:56.105Z,99.90
2023-01-28T21:27:59.083Z,99.90
2023-01-28T21:33:02.031Z,99.90
2023-01-28T21:38:06.227Z,99.90
2023-01-28T21:43:09.350Z,99.90
2023-01-28T21:48:12.464Z,99.90
2023-01-28T21:53:15.303Z,99.90
2023-01-28T21:58:36.616Z,99.90
2023-01-28T22:03:39.671Z,99.90
2023-01-28T22:08:42.596Z,99.90
2023-01-28T22:13:45.687Z,99.90
2023-01-28T22:18:50.275Z,99.90
2023-01-28T22:23:53.957Z,99.90
2023-01-28T22:28:56.918Z,99.90
2023-01-28T22:33:59.951Z,99.90
2023-01-28T22:39:05.239Z,99.90
2023-01-28T22:44:08.528Z,99.90
2023-01-28T22:49:12.600Z,99.90
2023-01-28T22:54:15.716Z,99.90
2023-01-28T22:59:18.449Z,99.90
2023-01-28T23:04:21.408Z,99.90
2023-01-28T23:09:24.416Z,99.90
2023-01-28T23:14:45.638Z,99.90
2023-01-28T23:20:06.949Z,99.90
2023-01-28T23:25:10.981Z,99.90
2023-01-28T23:30:15.233Z,99.90
2023-01-28T23:35:19.373Z,99.90
2023-01-28T23:40:24.720Z,99.90
2023-01-28T23:45:27.719Z,99.90
2023-01-28T23:50:31.089Z,99.90
2023-01-28T23:55:33.903Z,99.90
